sensor_id;sensor_type;location;lat;lon;timestamp;P1;durP1;ratioP1;P2;durP2;ratioP2
6197;SDS011;3132;42.622;23.328;2022-08-11T00:01:53;11.53;;;10.60;;
6197;SDS011;3132;42.622;23.328;2022-08-11T00:04:20;11.07;;;10.07;;
6197;SDS011;3132;42.622;23.328;2022-08-11T00:06:48;10.70;;;9.87;;
6197;SDS011;3132;42.622;23.328;2022-08-11T00:09:16;12.17;;;11.03;;
6197;SDS011;3132;42.622;23.328;2022-08-11T00:11:52;12.67;;;11.20;;
6197;SDS011;3132;42.622;23.328;2022-08-11T00:16:55;11.80;;;10.73;;
6197;SDS011;3132;42.622;23.328;2022-08-11T00:19:23;12.93;;;12.03;;
6197;SDS011;3132;42.622;23.328;2022-08-11T00:21:54;12.13;;;11.33;;
6197;SDS011;3132;42.622;23.328;2022-08-11T00:24:20;12.63;;;11.73;;
6197;SDS011;3132;42.622;23.328;2022-08-11T00:26:51;12.83;;;11.60;;
6197;SDS011;3132;42.622;23.328;2022-08-11T00:29:18;12.53;;;11.63;;
6197;SDS011;3132;42.622;23.328;2022-08-11T00:31:49;12.00;;;10.90;;
6197;SDS011;3132;42.622;23.328;2022-08-11T00:34:17;11.77;;;10.97;;
6197;SDS011;3132;42.622;23.328;2022-08-11T00:36:52;12.13;;;11.03;;
6197;SDS011;3132;42.622;23.328;2022-08-11T00:39:21;11.03;;;10.30;;
6197;SDS011;3132;42.622;23.328;2022-08-11T00:41:57;11.07;;;10.20;;
6197;SDS011;3132;42.622;23.328;2022-08-11T00:44:44;10.43;;;9.70;;
6197;SDS011;3132;42.622;23.328;2022-08-11T01:07:28;12.27;;;11.13;;
6197;SDS011;3132;42.622;23.328;2022-08-11T01:16:06;12.57;;;11.37;;
6197;SDS011;3132;42.622;23.328;2022-08-11T01:20:07;12.10;;;11.20;;
6197;SDS011;3132;42.622;23.328;2022-08-11T01:27:14;13.10;;;11.87;;
6197;SDS011;3132;42.622;23.328;2022-08-11T01:30:02;11.60;;;10.80;;
6197;SDS011;3132;42.622;23.328;2022-08-11T01:53:08;11.97;;;11.17;;
6197;SDS011;3132;42.622;23.328;2022-08-11T02:13:33;12.50;;;11.70;;
6197;SDS011;3132;42.622;23.328;2022-08-11T02:18:38;12.40;;;11.43;;
6197;SDS011;3132;42.622;23.328;2022-08-11T02:22:14;11.70;;;10.80;;
6197;SDS011;3132;42.622;23.328;2022-08-11T02:24:45;12.50;;;11.57;;
6197;SDS011;3132;42.622;23.328;2022-08-11T02:27:18;13.57;;;12.60;;
6197;SDS011;3132;42.622;23.328;2022-08-11T02:29:54;11.63;;;10.57;;
6197;SDS011;3132;42.622;23.328;2022-08-11T02:32:32;12.90;;;12.00;;
6197;SDS011;3132;42.622;23.328;2022-08-11T02:35:27;12.97;;;11.93;;
6197;SDS011;3132;42.622;23.328;2022-08-11T02:38:16;12.40;;;11.60;;
6197;SDS011;3132;42.622;23.328;2022-08-11T02:44:00;11.97;;;11.17;;
6197;SDS011;3132;42.622;23.328;2022-08-11T02:46:43;11.67;;;10.77;;
6197;SDS011;3132;42.622;23.328;2022-08-11T02:49:25;12.10;;;11.20;;
6197;SDS011;3132;42.622;23.328;2022-08-11T02:52:22;11.13;;;10.23;;
6197;SDS011;3132;42.622;23.328;2022-08-11T02:55:13;11.77;;;10.97;;
6197;SDS011;3132;42.622;23.328;2022-08-11T02:58:02;11.93;;;11.23;;
6197;SDS011;3132;42.622;23.328;2022-08-11T03:03:53;12.10;;;11.23;;
6197;SDS011;3132;42.622;23.328;2022-08-11T03:14:47;11.33;;;10.53;;
6197;SDS011;3132;42.622;23.328;2022-08-11T03:17:48;11.70;;;11.00;;
6197;SDS011;3132;42.622;23.328;2022-08-11T03:33:14;9.87;;;9.27;;
6197;SDS011;3132;42.622;23.328;2022-08-11T03:41:33;11.43;;;10.27;;
6197;SDS011;3132;42.622;23.328;2022-08-11T03:54:49;12.10;;;11.23;;
6197;SDS011;3132;42.622;23.328;2022-08-11T04:14:09;12.23;;;11.43;;
6197;SDS011;3132;42.622;23.328;2022-08-11T04:31:01;12.73;;;11.77;;
6197;SDS011;3132;42.622;23.328;2022-08-11T04:33:34;11.87;;;11.07;;
6197;SDS011;3132;42.622;23.328;2022-08-11T04:39:27;12.10;;;11.20;;
6197;SDS011;3132;42.622;23.328;2022-08-11T04:48:33;12.00;;;11.30;;
6197;SDS011;3132;42.622;23.328;2022-08-11T04:51:43;12.63;;;11.63;;
6197;SDS011;3132;42.622;23.328;2022-08-11T05:00:29;11.53;;;10.73;;
6197;SDS011;3132;42.622;23.328;2022-08-11T05:12:54;12.13;;;11.23;;
6197;SDS011;3132;42.622;23.328;2022-08-11T05:15:44;11.67;;;10.80;;
6197;SDS011;3132;42.622;23.328;2022-08-11T05:18:32;12.53;;;11.43;;
6197;SDS011;3132;42.622;23.328;2022-08-11T05:21:17;12.80;;;11.50;;
6197;SDS011;3132;42.622;23.328;2022-08-11T05:24:06;11.90;;;10.97;;
6197;SDS011;3132;42.622;23.328;2022-08-11T05:27:02;12.70;;;11.80;;
6197;SDS011;3132;42.622;23.328;2022-08-11T05:30:06;11.98;;;10.82;;
6197;SDS011;3132;42.622;23.328;2022-08-11T05:33:05;11.93;;;11.00;;
6197;SDS011;3132;42.622;23.328;2022-08-11T05:36:00;12.90;;;11.80;;
6197;SDS011;3132;42.622;23.328;2022-08-11T05:38:34;13.13;;;12.03;;
6197;SDS011;3132;42.622;23.328;2022-08-11T05:41:21;14.00;;;12.43;;
6197;SDS011;3132;42.622;23.328;2022-08-11T05:44:09;12.43;;;11.48;;
6197;SDS011;3132;42.622;23.328;2022-08-11T05:46:54;12.38;;;11.18;;
6197;SDS011;3132;42.622;23.328;2022-08-11T05:49:38;12.15;;;11.30;;
6197;SDS011;3132;42.622;23.328;2022-08-11T05:52:24;12.90;;;11.68;;
6197;SDS011;3132;42.622;23.328;2022-08-11T05:55:11;12.93;;;11.93;;
6197;SDS011;3132;42.622;23.328;2022-08-11T05:58:01;12.05;;;10.95;;
6197;SDS011;3132;42.622;23.328;2022-08-11T06:00:29;10.73;;;9.93;;
6197;SDS011;3132;42.622;23.328;2022-08-11T06:02:57;10.05;;;9.32;;
6197;SDS011;3132;42.622;23.328;2022-08-11T06:05:34;10.88;;;9.85;;
6197;SDS011;3132;42.622;23.328;2022-08-11T06:08:05;10.07;;;9.30;;
6197;SDS011;3132;42.622;23.328;2022-08-11T06:10:33;9.50;;;8.80;;
6197;SDS011;3132;42.622;23.328;2022-08-11T06:13:01;9.77;;;9.02;;
6197;SDS011;3132;42.622;23.328;2022-08-11T06:15:30;8.82;;;8.27;;
6197;SDS011;3132;42.622;23.328;2022-08-11T06:17:57;9.77;;;8.98;;
6197;SDS011;3132;42.622;23.328;2022-08-11T06:20:25;9.80;;;9.10;;
6197;SDS011;3132;42.622;23.328;2022-08-11T06:22:57;9.32;;;8.63;;
6197;SDS011;3132;42.622;23.328;2022-08-11T06:25:34;9.45;;;8.63;;
6197;SDS011;3132;42.622;23.328;2022-08-11T06:28:04;8.48;;;7.97;;
6197;SDS011;3132;42.622;23.328;2022-08-11T06:30:43;8.45;;;7.95;;
6197;SDS011;3132;42.622;23.328;2022-08-11T06:33:12;9.80;;;8.88;;
6197;SDS011;3132;42.622;23.328;2022-08-11T06:35:57;9.05;;;8.18;;
6197;SDS011;3132;42.622;23.328;2022-08-11T06:41:22;9.60;;;8.68;;
6197;SDS011;3132;42.622;23.328;2022-08-11T06:46:30;9.10;;;8.43;;
6197;SDS011;3132;42.622;23.328;2022-08-11T06:49:03;10.10;;;9.35;;
6197;SDS011;3132;42.622;23.328;2022-08-11T06:51:30;10.68;;;9.98;;
6197;SDS011;3132;42.622;23.328;2022-08-11T06:53:59;9.93;;;9.23;;
6197;SDS011;3132;42.622;23.328;2022-08-11T06:56:29;9.82;;;9.05;;
6197;SDS011;3132;42.622;23.328;2022-08-11T06:59:21;14.85;;;13.95;;
6197;SDS011;3132;42.622;23.328;2022-08-11T07:04:48;10.43;;;9.65;;
6197;SDS011;3132;42.622;23.328;2022-08-11T07:13:42;10.25;;;9.65;;
6197;SDS011;3132;42.622;23.328;2022-08-11T07:23:12;10.77;;;10.05;;
6197;SDS011;3132;42.622;23.328;2022-08-11T07:25:57;10.32;;;9.73;;
6197;SDS011;3132;42.622;23.328;2022-08-11T07:28:44;10.90;;;10.13;;
6197;SDS011;3132;42.622;23.328;2022-08-11T07:36:41;9.77;;;9.18;;
6197;SDS011;3132;42.622;23.328;2022-08-11T07:39:21;9.52;;;8.85;;
6197;SDS011;3132;42.622;23.328;2022-08-11T07:41:50;10.23;;;9.43;;
6197;SDS011;3132;42.622;23.328;2022-08-11T07:44:17;10.25;;;9.55;;
6197;SDS011;3132;42.622;23.328;2022-08-11T07:46:46;8.77;;;8.25;;
6197;SDS011;3132;42.622;23.328;2022-08-11T07:49:35;9.88;;;9.18;;
6197;SDS011;3132;42.622;23.328;2022-08-11T07:52:20;9.32;;;8.73;;
6197;SDS011;3132;42.622;23.328;2022-08-11T07:55:14;9.65;;;8.80;;
6197;SDS011;3132;42.622;23.328;2022-08-11T07:57:44;9.82;;;9.23;;
6197;SDS011;3132;42.622;23.328;2022-08-11T08:00:34;11.27;;;10.27;;
6197;SDS011;3132;42.622;23.328;2022-08-11T08:03:23;11.35;;;10.55;;
6197;SDS011;3132;42.622;23.328;2022-08-11T08:06:08;10.60;;;9.80;;
6197;SDS011;3132;42.622;23.328;2022-08-11T08:08:52;9.75;;;9.15;;
6197;SDS011;3132;42.622;23.328;2022-08-11T08:11:38;9.88;;;9.27;;
6197;SDS011;3132;42.622;23.328;2022-08-11T08:14:22;10.73;;;9.93;;
6197;SDS011;3132;42.622;23.328;2022-08-11T08:17:07;10.05;;;9.35;;
6197;SDS011;3132;42.622;23.328;2022-08-11T08:19:52;11.30;;;8.75;;
6197;SDS011;3132;42.622;23.328;2022-08-11T08:22:18;9.80;;;9.10;;
6197;SDS011;3132;42.622;23.328;2022-08-11T08:24:45;9.40;;;8.90;;
6197;SDS011;3132;42.622;23.328;2022-08-11T08:27:12;11.18;;;10.38;;
6197;SDS011;3132;42.622;23.328;2022-08-11T08:29:38;10.15;;;9.18;;
6197;SDS011;3132;42.622;23.328;2022-08-11T08:32:23;10.20;;;9.50;;
6197;SDS011;3132;42.622;23.328;2022-08-11T08:34:52;9.80;;;9.20;;
6197;SDS011;3132;42.622;23.328;2022-08-11T08:37:20;10.27;;;9.57;;
6197;SDS011;3132;42.622;23.328;2022-08-11T08:39:56;9.88;;;9.27;;
6197;SDS011;3132;42.622;23.328;2022-08-11T08:42:24;8.90;;;8.35;;
6197;SDS011;3132;42.622;23.328;2022-08-11T08:44:54;9.18;;;8.57;;
6197;SDS011;3132;42.622;23.328;2022-08-11T08:47:22;10.25;;;9.60;;
6197;SDS011;3132;42.622;23.328;2022-08-11T08:49:50;8.93;;;8.32;;
6197;SDS011;3132;42.622;23.328;2022-08-11T08:52:24;10.05;;;9.38;;
6197;SDS011;3132;42.622;23.328;2022-08-11T08:54:55;9.52;;;8.85;;
6197;SDS011;3132;42.622;23.328;2022-08-11T08:57:26;10.02;;;9.20;;
6197;SDS011;3132;42.622;23.328;2022-08-11T08:59:53;9.43;;;8.73;;
6197;SDS011;3132;42.622;23.328;2022-08-11T09:02:22;9.25;;;8.65;;
6197;SDS011;3132;42.622;23.328;2022-08-11T09:04:49;10.25;;;9.57;;
6197;SDS011;3132;42.622;23.328;2022-08-11T09:07:16;10.35;;;9.43;;
6197;SDS011;3132;42.622;23.328;2022-08-11T09:09:46;9.55;;;8.88;;
6197;SDS011;3132;42.622;23.328;2022-08-11T09:12:12;10.18;;;9.48;;
6197;SDS011;3132;42.622;23.328;2022-08-11T09:14:39;9.65;;;8.90;;
6197;SDS011;3132;42.622;23.328;2022-08-11T09:17:28;9.45;;;8.75;;
6197;SDS011;3132;42.622;23.328;2022-08-11T09:20:00;8.60;;;8.10;;
6197;SDS011;3132;42.622;23.328;2022-08-11T09:22:30;9.68;;;8.88;;
6197;SDS011;3132;42.622;23.328;2022-08-11T09:25:18;10.88;;;9.95;;
6197;SDS011;3132;42.622;23.328;2022-08-11T09:28:04;9.38;;;8.50;;
6197;SDS011;3132;42.622;23.328;2022-08-11T09:30:33;9.52;;;8.90;;
6197;SDS011;3132;42.622;23.328;2022-08-11T09:33:00;9.48;;;8.73;;
6197;SDS011;3132;42.622;23.328;2022-08-11T09:35:29;9.07;;;8.35;;
6197;SDS011;3132;42.622;23.328;2022-08-11T09:37:57;9.32;;;8.77;;
6197;SDS011;3132;42.622;23.328;2022-08-11T09:40:42;8.57;;;7.97;;
6197;SDS011;3132;42.622;23.328;2022-08-11T09:43:13;10.30;;;9.60;;
6197;SDS011;3132;42.622;23.328;2022-08-11T09:46:00;10.40;;;9.70;;
6197;SDS011;3132;42.622;23.328;2022-08-11T09:48:26;9.02;;;8.52;;
6197;SDS011;3132;42.622;23.328;2022-08-11T09:50:57;10.68;;;9.35;;
6197;SDS011;3132;42.622;23.328;2022-08-11T09:53:25;10.45;;;9.75;;
6197;SDS011;3132;42.622;23.328;2022-08-11T09:55:52;10.35;;;9.57;;
6197;SDS011;3132;42.622;23.328;2022-08-11T09:58:18;9.55;;;8.85;;
6197;SDS011;3132;42.622;23.328;2022-08-11T10:00:47;9.90;;;9.23;;
6197;SDS011;3132;42.622;23.328;2022-08-11T10:03:23;9.70;;;9.00;;
6197;SDS011;3132;42.622;23.328;2022-08-11T10:05:59;10.57;;;9.70;;
6197;SDS011;3132;42.622;23.328;2022-08-11T10:08:46;9.07;;;8.57;;
6197;SDS011;3132;42.622;23.328;2022-08-11T10:11:16;9.25;;;8.65;;
6197;SDS011;3132;42.622;23.328;2022-08-11T10:13:45;8.50;;;8.00;;
6197;SDS011;3132;42.622;23.328;2022-08-11T10:16:33;9.05;;;8.45;;
6197;SDS011;3132;42.622;23.328;2022-08-11T10:19:01;9.27;;;8.60;;
6197;SDS011;3132;42.622;23.328;2022-08-11T10:21:30;8.70;;;8.20;;
6197;SDS011;3132;42.622;23.328;2022-08-11T10:23:59;9.60;;;9.00;;
6197;SDS011;3132;42.622;23.328;2022-08-11T10:26:45;8.63;;;8.13;;
6197;SDS011;3132;42.622;23.328;2022-08-11T10:29:29;10.27;;;9.55;;
6197;SDS011;3132;42.622;23.328;2022-08-11T10:32:24;10.00;;;9.20;;
6197;SDS011;3132;42.622;23.328;2022-08-11T10:35:10;9.40;;;8.68;;
6197;SDS011;3132;42.622;23.328;2022-08-11T10:37:38;9.98;;;9.27;;
6197;SDS011;3132;42.622;23.328;2022-08-11T10:40:06;9.77;;;9.07;;
6197;SDS011;3132;42.622;23.328;2022-08-11T10:42:34;10.05;;;9.35;;
6197;SDS011;3132;42.622;23.328;2022-08-11T10:45:20;11.00;;;10.15;;
6197;SDS011;3132;42.622;23.328;2022-08-11T10:48:05;9.85;;;9.05;;
6197;SDS011;3132;42.622;23.328;2022-08-11T10:50:31;10.20;;;9.40;;
6197;SDS011;3132;42.622;23.328;2022-08-11T10:53:16;9.27;;;8.70;;
6197;SDS011;3132;42.622;23.328;2022-08-11T10:56:01;13.75;;;10.13;;
6197;SDS011;3132;42.622;23.328;2022-08-11T10:58:46;9.60;;;8.82;;
6197;SDS011;3132;42.622;23.328;2022-08-11T11:01:34;9.80;;;9.18;;
6197;SDS011;3132;42.622;23.328;2022-08-11T11:09:31;10.10;;;9.30;;
6197;SDS011;3132;42.622;23.328;2022-08-11T11:12:10;9.77;;;9.10;;
6197;SDS011;3132;42.622;23.328;2022-08-11T11:14:58;9.25;;;8.60;;
6197;SDS011;3132;42.622;23.328;2022-08-11T11:17:47;9.77;;;8.95;;
6197;SDS011;3132;42.622;23.328;2022-08-11T11:31:46;9.02;;;8.43;;
6197;SDS011;3132;42.622;23.328;2022-08-11T11:37:10;9.82;;;9.13;;
6197;SDS011;3132;42.622;23.328;2022-08-11T11:39:38;9.50;;;8.90;;
6197;SDS011;3132;42.622;23.328;2022-08-11T11:42:05;9.73;;;9.02;;
6197;SDS011;3132;42.622;23.328;2022-08-11T11:44:33;9.45;;;8.85;;
6197;SDS011;3132;42.622;23.328;2022-08-11T11:47:07;9.20;;;8.60;;
6197;SDS011;3132;42.622;23.328;2022-08-11T11:49:36;9.88;;;9.23;;
6197;SDS011;3132;42.622;23.328;2022-08-11T11:52:07;9.48;;;8.85;;
6197;SDS011;3132;42.622;23.328;2022-08-11T11:54:38;8.98;;;8.20;;
6197;SDS011;3132;42.622;23.328;2022-08-11T11:57:05;9.20;;;8.55;;
6197;SDS011;3132;42.622;23.328;2022-08-11T11:59:50;8.73;;;8.13;;
6197;SDS011;3132;42.622;23.328;2022-08-11T12:02:36;9.10;;;8.60;;
6197;SDS011;3132;42.622;23.328;2022-08-11T12:05:04;9.88;;;9.23;;
6197;SDS011;3132;42.622;23.328;2022-08-11T12:07:32;9.00;;;8.40;;
6197;SDS011;3132;42.622;23.328;2022-08-11T12:10:18;8.85;;;8.25;;
6197;SDS011;3132;42.622;23.328;2022-08-11T12:12:43;8.95;;;8.35;;
6197;SDS011;3132;42.622;23.328;2022-08-11T12:15:28;9.13;;;8.30;;
6197;SDS011;3132;42.622;23.328;2022-08-11T12:17:55;8.95;;;8.45;;
6197;SDS011;3132;42.622;23.328;2022-08-11T12:20:21;8.75;;;8.15;;
6197;SDS011;3132;42.622;23.328;2022-08-11T12:22:48;8.85;;;8.20;;
6197;SDS011;3132;42.622;23.328;2022-08-11T12:28:55;9.27;;;8.60;;
6197;SDS011;3132;42.622;23.328;2022-08-11T12:31:22;9.73;;;9.02;;
6197;SDS011;3132;42.622;23.328;2022-08-11T12:33:49;9.23;;;8.52;;
6197;SDS011;3132;42.622;23.328;2022-08-11T12:36:15;9.52;;;8.82;;
6197;SDS011;3132;42.622;23.328;2022-08-11T12:38:43;9.20;;;8.60;;
6197;SDS011;3132;42.622;23.328;2022-08-11T12:41:13;10.35;;;9.07;;
6197;SDS011;3132;42.622;23.328;2022-08-11T12:43:58;9.85;;;9.05;;
6197;SDS011;3132;42.622;23.328;2022-08-11T12:46:44;9.25;;;8.45;;
6197;SDS011;3132;42.622;23.328;2022-08-11T12:49:14;9.35;;;8.65;;
6197;SDS011;3132;42.622;23.328;2022-08-11T12:52:03;9.18;;;8.48;;
6197;SDS011;3132;42.622;23.328;2022-08-11T12:54:47;9.60;;;8.90;;
6197;SDS011;3132;42.622;23.328;2022-08-11T12:57:32;9.73;;;8.98;;
6197;SDS011;3132;42.622;23.328;2022-08-11T13:00:19;9.20;;;8.60;;
6197;SDS011;3132;42.622;23.328;2022-08-11T13:03:05;9.82;;;8.93;;
6197;SDS011;3132;42.622;23.328;2022-08-11T13:05:52;9.38;;;8.77;;
6197;SDS011;3132;42.622;23.328;2022-08-11T13:08:21;9.15;;;8.65;;
6197;SDS011;3132;42.622;23.328;2022-08-11T13:10:49;8.93;;;8.35;;
6197;SDS011;3132;42.622;23.328;2022-08-11T13:13:34;9.45;;;8.50;;
6197;SDS011;3132;42.622;23.328;2022-08-11T13:16:01;10.75;;;9.95;;
6197;SDS011;3132;42.622;23.328;2022-08-11T13:18:27;8.70;;;8.23;;
6197;SDS011;3132;42.622;23.328;2022-08-11T13:20:54;10.15;;;9.15;;
6197;SDS011;3132;42.622;23.328;2022-08-11T13:23:21;9.95;;;9.27;;
6197;SDS011;3132;42.622;23.328;2022-08-11T13:25:47;9.27;;;8.73;;
6197;SDS011;3132;42.622;23.328;2022-08-11T13:28:15;9.80;;;9.10;;
6197;SDS011;3132;42.622;23.328;2022-08-11T13:30:42;9.70;;;9.00;;
6197;SDS011;3132;42.622;23.328;2022-08-11T13:33:27;9.75;;;9.15;;
6197;SDS011;3132;42.622;23.328;2022-08-11T13:35:53;9.52;;;8.93;;
6197;SDS011;3132;42.622;23.328;2022-08-11T13:38:20;8.95;;;8.35;;
6197;SDS011;3132;42.622;23.328;2022-08-11T13:40:48;9.40;;;8.80;;
6197;SDS011;3132;42.622;23.328;2022-08-11T13:43:16;9.60;;;8.95;;
6197;SDS011;3132;42.622;23.328;2022-08-11T13:45:44;8.77;;;8.15;;
6197;SDS011;3132;42.622;23.328;2022-08-11T13:48:11;9.57;;;8.98;;
6197;SDS011;3132;42.622;23.328;2022-08-11T13:50:37;8.95;;;8.40;;
6197;SDS011;3132;42.622;23.328;2022-08-11T13:53:23;9.73;;;9.13;;
6197;SDS011;3132;42.622;23.328;2022-08-11T13:55:50;9.70;;;9.10;;
6197;SDS011;3132;42.622;23.328;2022-08-11T13:58:16;9.75;;;9.10;;
6197;SDS011;3132;42.622;23.328;2022-08-11T14:00:43;8.63;;;8.13;;
6197;SDS011;3132;42.622;23.328;2022-08-11T14:03:12;9.85;;;9.23;;
6197;SDS011;3132;42.622;23.328;2022-08-11T14:05:39;9.45;;;8.85;;
6197;SDS011;3132;42.622;23.328;2022-08-11T14:08:11;9.73;;;8.70;;
6197;SDS011;3132;42.622;23.328;2022-08-11T14:10:39;9.25;;;8.60;;
6197;SDS011;3132;42.622;23.328;2022-08-11T14:13:06;10.27;;;9.25;;
6197;SDS011;3132;42.622;23.328;2022-08-11T14:15:55;9.25;;;8.68;;
6197;SDS011;3132;42.622;23.328;2022-08-11T14:18:27;9.57;;;8.73;;
6197;SDS011;3132;42.622;23.328;2022-08-11T14:20:55;8.85;;;8.27;;
6197;SDS011;3132;42.622;23.328;2022-08-11T14:23:43;8.80;;;7.97;;
6197;SDS011;3132;42.622;23.328;2022-08-11T14:26:11;9.18;;;8.68;;
6197;SDS011;3132;42.622;23.328;2022-08-11T14:28:51;8.80;;;8.30;;
6197;SDS011;3132;42.622;23.328;2022-08-11T14:31:19;8.48;;;7.97;;
6197;SDS011;3132;42.622;23.328;2022-08-11T14:33:46;8.23;;;7.72;;
6197;SDS011;3132;42.622;23.328;2022-08-11T14:36:12;8.75;;;8.25;;
6197;SDS011;3132;42.622;23.328;2022-08-11T14:38:38;9.15;;;8.45;;
6197;SDS011;3132;42.622;23.328;2022-08-11T14:41:06;8.52;;;8.02;;
6197;SDS011;3132;42.622;23.328;2022-08-11T14:43:51;8.30;;;7.80;;
6197;SDS011;3132;42.622;23.328;2022-08-11T14:46:38;8.82;;;8.30;;
6197;SDS011;3132;42.622;23.328;2022-08-11T14:49:24;9.05;;;8.45;;
6197;SDS011;3132;42.622;23.328;2022-08-11T14:51:51;9.35;;;8.55;;
6197;SDS011;3132;42.622;23.328;2022-08-11T14:54:21;8.90;;;8.35;;
6197;SDS011;3132;42.622;23.328;2022-08-11T14:57:05;8.43;;;7.90;;
6197;SDS011;3132;42.622;23.328;2022-08-11T14:59:30;9.15;;;8.55;;
6197;SDS011;3132;42.622;23.328;2022-08-11T15:01:57;9.07;;;8.48;;
6197;SDS011;3132;42.622;23.328;2022-08-11T15:04:44;8.85;;;8.25;;
6197;SDS011;3132;42.622;23.328;2022-08-11T15:07:09;8.65;;;8.15;;
6197;SDS011;3132;42.622;23.328;2022-08-11T15:09:35;8.75;;;8.25;;
6197;SDS011;3132;42.622;23.328;2022-08-11T15:12:02;9.27;;;8.48;;
6197;SDS011;3132;42.622;23.328;2022-08-11T15:14:34;8.75;;;8.25;;
6197;SDS011;3132;42.622;23.328;2022-08-11T15:17:20;8.98;;;8.38;;
6197;SDS011;3132;42.622;23.328;2022-08-11T15:19:46;8.98;;;8.38;;
6197;SDS011;3132;42.622;23.328;2022-08-11T15:22:32;8.50;;;7.90;;
6197;SDS011;3132;42.622;23.328;2022-08-11T15:25:16;9.52;;;8.93;;
6197;SDS011;3132;42.622;23.328;2022-08-11T15:27:43;8.27;;;7.75;;
6197;SDS011;3132;42.622;23.328;2022-08-11T15:30:31;8.88;;;8.27;;
6197;SDS011;3132;42.622;23.328;2022-08-11T15:33:17;8.88;;;8.38;;
6197;SDS011;3132;42.622;23.328;2022-08-11T15:36:04;8.68;;;8.18;;
6197;SDS011;3132;42.622;23.328;2022-08-11T15:38:53;8.95;;;8.45;;
6197;SDS011;3132;42.622;23.328;2022-08-11T15:41:22;9.13;;;8.63;;
6197;SDS011;3132;42.622;23.328;2022-08-11T15:44:28;9.63;;;8.93;;
6197;SDS011;3132;42.622;23.328;2022-08-11T15:47:14;9.57;;;8.85;;
6197;SDS011;3132;42.622;23.328;2022-08-11T15:49:43;10.20;;;9.38;;
6197;SDS011;3132;42.622;23.328;2022-08-11T15:52:10;8.88;;;8.27;;
6197;SDS011;3132;42.622;23.328;2022-08-11T15:54:40;9.23;;;8.68;;
6197;SDS011;3132;42.622;23.328;2022-08-11T15:57:07;9.40;;;8.80;;
6197;SDS011;3132;42.622;23.328;2022-08-11T15:59:54;10.70;;;9.90;;
6197;SDS011;3132;42.622;23.328;2022-08-11T16:02:40;8.80;;;8.40;;
6197;SDS011;3132;42.622;23.328;2022-08-11T16:05:19;9.45;;;8.68;;
6197;SDS011;3132;42.622;23.328;2022-08-11T16:07:46;9.73;;;9.02;;
6197;SDS011;3132;42.622;23.328;2022-08-11T16:10:16;9.70;;;8.98;;
6197;SDS011;3132;42.622;23.328;2022-08-11T16:12:50;9.27;;;8.68;;
6197;SDS011;3132;42.622;23.328;2022-08-11T16:15:26;9.35;;;8.75;;
6197;SDS011;3132;42.622;23.328;2022-08-11T16:18:11;8.95;;;8.25;;
6197;SDS011;3132;42.622;23.328;2022-08-11T16:20:40;9.50;;;8.80;;
6197;SDS011;3132;42.622;23.328;2022-08-11T16:23:07;10.45;;;9.75;;
6197;SDS011;3132;42.622;23.328;2022-08-11T16:25:34;8.52;;;8.02;;
6197;SDS011;3132;42.622;23.328;2022-08-11T16:28:04;10.40;;;8.60;;
6197;SDS011;3132;42.622;23.328;2022-08-11T16:30:32;8.18;;;7.75;;
6197;SDS011;3132;42.622;23.328;2022-08-11T16:32:59;8.57;;;7.97;;
6197;SDS011;3132;42.622;23.328;2022-08-11T16:35:29;8.90;;;8.40;;
6197;SDS011;3132;42.622;23.328;2022-08-11T16:38:17;9.50;;;8.80;;
6197;SDS011;3132;42.622;23.328;2022-08-11T16:41:04;9.27;;;8.70;;
6197;SDS011;3132;42.622;23.328;2022-08-11T16:43:31;9.55;;;8.95;;
6197;SDS011;3132;42.622;23.328;2022-08-11T16:46:17;8.02;;;7.53;;
6197;SDS011;3132;42.622;23.328;2022-08-11T16:49:37;9.82;;;9.18;;
6197;SDS011;3132;42.622;23.328;2022-08-11T16:51:56;9.43;;;8.82;;
6197;SDS011;3132;42.622;23.328;2022-08-11T16:54:28;9.80;;;9.02;;
6197;SDS011;3132;42.622;23.328;2022-08-11T16:56:55;9.80;;;9.20;;
6197;SDS011;3132;42.622;23.328;2022-08-11T16:59:42;9.02;;;8.35;;
6197;SDS011;3132;42.622;23.328;2022-08-11T17:02:11;8.82;;;8.32;;
6197;SDS011;3132;42.622;23.328;2022-08-11T17:05:02;8.98;;;8.38;;
6197;SDS011;3132;42.622;23.328;2022-08-11T17:07:59;9.48;;;8.82;;
6197;SDS011;3132;42.622;23.328;2022-08-11T17:10:47;8.60;;;8.07;;
6197;SDS011;3132;42.622;23.328;2022-08-11T17:13:44;10.13;;;9.23;;
6197;SDS011;3132;42.622;23.328;2022-08-11T17:16:10;9.10;;;8.50;;
6197;SDS011;3132;42.622;23.328;2022-08-11T17:18:43;9.38;;;8.88;;
6197;SDS011;3132;42.622;23.328;2022-08-11T17:23:42;9.45;;;8.68;;
6197;SDS011;3132;42.622;23.328;2022-08-11T17:26:14;8.98;;;8.38;;
6197;SDS011;3132;42.622;23.328;2022-08-11T17:28:41;9.40;;;8.75;;
6197;SDS011;3132;42.622;23.328;2022-08-11T17:31:08;9.13;;;8.52;;
6197;SDS011;3132;42.622;23.328;2022-08-11T17:33:54;8.90;;;8.35;;
6197;SDS011;3132;42.622;23.328;2022-08-11T17:36:40;8.90;;;8.40;;
6197;SDS011;3132;42.622;23.328;2022-08-11T17:39:09;10.15;;;9.45;;
6197;SDS011;3132;42.622;23.328;2022-08-11T17:41:36;9.48;;;8.88;;
6197;SDS011;3132;42.622;23.328;2022-08-11T17:44:21;9.95;;;9.15;;
6197;SDS011;3132;42.622;23.328;2022-08-11T17:47:07;9.45;;;8.82;;
6197;SDS011;3132;42.622;23.328;2022-08-11T17:49:51;8.48;;;7.97;;
6197;SDS011;3132;42.622;23.328;2022-08-11T17:52:17;9.90;;;9.18;;
6197;SDS011;3132;42.622;23.328;2022-08-11T17:55:03;9.27;;;8.68;;
6197;SDS011;3132;42.622;23.328;2022-08-11T17:57:48;8.98;;;8.40;;
6197;SDS011;3132;42.622;23.328;2022-08-11T18:00:33;10.25;;;9.32;;
6197;SDS011;3132;42.622;23.328;2022-08-11T18:02:59;8.85;;;8.27;;
6197;SDS011;3132;42.622;23.328;2022-08-11T18:05:44;9.38;;;8.75;;
6197;SDS011;3132;42.622;23.328;2022-08-11T18:08:13;9.43;;;8.82;;
6197;SDS011;3132;42.622;23.328;2022-08-11T18:10:59;9.35;;;8.75;;
6197;SDS011;3132;42.622;23.328;2022-08-11T18:13:45;8.88;;;8.23;;
6197;SDS011;3132;42.622;23.328;2022-08-11T18:16:30;9.68;;;9.07;;
6197;SDS011;3132;42.622;23.328;2022-08-11T18:19:14;9.98;;;9.38;;
6197;SDS011;3132;42.622;23.328;2022-08-11T18:22:08;9.63;;;8.93;;
6197;SDS011;3132;42.622;23.328;2022-08-11T18:25:02;9.55;;;8.85;;
6197;SDS011;3132;42.622;23.328;2022-08-11T18:27:53;8.88;;;8.38;;
6197;SDS011;3132;42.622;23.328;2022-08-11T18:30:38;9.80;;;9.10;;
6197;SDS011;3132;42.622;23.328;2022-08-11T18:33:25;9.57;;;8.98;;
6197;SDS011;3132;42.622;23.328;2022-08-11T18:36:14;8.63;;;8.13;;
6197;SDS011;3132;42.622;23.328;2022-08-11T18:39:03;9.70;;;9.10;;
6197;SDS011;3132;42.622;23.328;2022-08-11T18:41:51;9.45;;;8.85;;
6197;SDS011;3132;42.622;23.328;2022-08-11T18:44:40;9.65;;;9.00;;
6197;SDS011;3132;42.622;23.328;2022-08-11T18:47:25;10.48;;;9.82;;
6197;SDS011;3132;42.622;23.328;2022-08-11T18:50:11;10.98;;;9.98;;
6197;SDS011;3132;42.622;23.328;2022-08-11T18:52:57;10.48;;;9.68;;
6197;SDS011;3132;42.622;23.328;2022-08-11T18:55:43;12.55;;;11.45;;
6197;SDS011;3132;42.622;23.328;2022-08-11T18:58:30;10.48;;;9.70;;
6197;SDS011;3132;42.622;23.328;2022-08-11T19:01:15;10.98;;;10.15;;
6197;SDS011;3132;42.622;23.328;2022-08-11T19:04:02;9.88;;;9.27;;
6197;SDS011;3132;42.622;23.328;2022-08-11T19:06:49;9.98;;;9.27;;
6197;SDS011;3132;42.622;23.328;2022-08-11T19:09:37;10.18;;;9.35;;
6197;SDS011;3132;42.622;23.328;2022-08-11T19:12:24;9.95;;;9.25;;
6197;SDS011;3132;42.622;23.328;2022-08-11T19:15:13;9.18;;;8.60;;
6197;SDS011;3132;42.622;23.328;2022-08-11T19:17:57;9.63;;;9.02;;
6197;SDS011;3132;42.622;23.328;2022-08-11T19:20:44;9.73;;;9.02;;
6197;SDS011;3132;42.622;23.328;2022-08-11T19:23:31;9.98;;;9.27;;
6197;SDS011;3132;42.622;23.328;2022-08-11T19:26:18;9.52;;;8.93;;
6197;SDS011;3132;42.622;23.328;2022-08-11T19:29:04;10.57;;;9.40;;
6197;SDS011;3132;42.622;23.328;2022-08-11T19:31:49;9.48;;;8.77;;
6197;SDS011;3132;42.622;23.328;2022-08-11T19:34:35;10.57;;;9.77;;
6197;SDS011;3132;42.622;23.328;2022-08-11T19:37:20;12.27;;;11.35;;
6197;SDS011;3132;42.622;23.328;2022-08-11T19:40:07;12.43;;;11.23;;
6197;SDS011;3132;42.622;23.328;2022-08-11T19:42:53;10.55;;;9.82;;